Time;durP1;ratioP1;P1;durP2;ratioP2;P2;SDS_P1;SDS_P2;PMS_P1;PMS_P2;Temp;Humidity;BMP_temperature;BMP_pressure;BME280_temperature;BME280_humidity;BME280_pressure;Samples;Min_cycle;Max_cycle;Signal;HPM_P1;HPM_P2
2021/07/24 00:01:06;;;;;;;9.00;5.78;;;;;;;;;;5068908;28;20047;-50
2021/07/24 00:03:32;;;;;;;9.27;6.03;;;;;;;;;;5065390;28;20430;-49
2021/07/24 00:05:58;;;;;;;8.23;5.53;;;;;;;;;;5092048;28;20028;-51
2021/07/24 00:08:24;;;;;;;7.70;5.68;;;;;;;;;;5088088;28;20456;-49
2021/07/24 00:10:50;;;;;;;12.85;6.43;;;;;;;;;;5082382;28;20443;-49
2021/07/24 00:13:16;;;;;;;8.93;6.05;;;;;;;;;;5074225;28;20048;-51
2021/07/24 00:15:42;;;;;;;10.40;6.53;;;;;;;;;;5066495;28;20385;-49
2021/07/24 00:18:08;;;;;;;7.80;6.13;;;;;;;;;;5088695;28;20024;-50
2021/07/24 00:20:34;;;;;;;9.35;6.00;;;;;;;;;;5092312;28;20028;-50
2021/07/24 00:23:00;;;;;;;11.25;6.30;;;;;;;;;;5092310;28;20073;-50
2021/07/24 00:25:26;;;;;;;11.07;5.90;;;;;;;;;;5098778;28;20047;-49
2021/07/24 00:27:52;;;;;;;7.75;6.40;;;;;;;;;;5098440;28;20024;-49
2021/07/24 00:30:18;;;;;;;9.43;6.38;;;;;;;;;;5098866;28;20112;-50
2021/07/24 00:32:44;;;;;;;10.35;5.97;;;;;;;;;;5098668;28;20032;-49
2021/07/24 00:35:10;;;;;;;8.48;5.90;;;;;;;;;;5099087;28;20367;-50
2021/07/24 00:37:36;;;;;;;9.13;6.28;;;;;;;;;;5098057;28;20020;-52
2021/07/24 00:40:02;;;;;;;12.95;5.97;;;;;;;;;;5077168;28;20035;-51
2021/07/24 00:42:28;;;;;;;9.85;6.75;;;;;;;;;;5062222;28;20392;-50
2021/07/24 00:44:56;;;;;;;10.13;6.68;;;;;;;;;;5069791;28;20094;-49
2021/07/24 00:47:24;;;;;;;9.90;6.30;;;;;;;;;;5077102;28;20020;-51
2021/07/24 00:49:50;;;;;;;7.88;6.20;;;;;;;;;;5076597;28;20025;-51
2021/07/24 00:52:17;;;;;;;8.68;6.47;;;;;;;;;;5068474;28;20059;-50
2021/07/24 00:54:43;;;;;;;9.10;6.53;;;;;;;;;;5075841;28;20517;-50
2021/07/24 00:57:12;;;;;;;14.95;7.03;;;;;;;;;;5065436;28;20536;-49
2021/07/24 00:59:39;;;;;;;8.82;6.32;;;;;;;;;;5058241;28;20083;-50
2021/07/24 01:02:05;;;;;;;13.57;7.20;;;;;;;;;;5067721;28;20404;-47
2021/07/24 01:04:32;;;;;;;8.45;6.60;;;;;;;;;;5069949;28;20036;-47
2021/07/24 01:06:59;;;;;;;9.52;6.53;;;;;;;;;;5070727;28;20031;-47
2021/07/24 01:09:25;;;;;;;7.53;6.05;;;;;;;;;;5079247;28;20059;-48
2021/07/24 01:11:51;;;;;;;11.63;6.85;;;;;;;;;;5066033;28;20472;-48
2021/07/24 01:14:18;;;;;;;12.00;7.20;;;;;;;;;;5075550;28;20143;-47
2021/07/24 01:16:45;;;;;;;11.98;6.95;;;;;;;;;;5063023;28;20032;-48
2021/07/24 01:19:11;;;;;;;12.40;7.30;;;;;;;;;;5058743;28;20025;-48
2021/07/24 01:21:37;;;;;;;9.80;6.32;;;;;;;;;;5066867;28;20047;-48
2021/07/24 01:24:03;;;;;;;9.05;6.30;;;;;;;;;;5059703;28;20033;-50
2021/07/24 01:26:31;;;;;;;9.50;6.13;;;;;;;;;;5058786;28;20488;-48
2021/07/24 01:28:57;;;;;;;9.77;6.75;;;;;;;;;;5065609;28;20083;-47
2021/07/24 01:31:23;;;;;;;11.52;6.20;;;;;;;;;;5078605;28;20103;-48
2021/07/24 01:33:49;;;;;;;10.48;6.28;;;;;;;;;;5071038;28;20465;-47
2021/07/24 01:36:16;;;;;;;10.10;6.60;;;;;;;;;;5055307;28;20115;-50
2021/07/24 01:38:42;;;;;;;12.23;7.50;;;;;;;;;;5061334;28;20033;-49
2021/07/24 01:41:08;;;;;;;9.98;6.55;;;;;;;;;;5056292;28;20033;-49
2021/07/24 01:43:34;;;;;;;11.70;7.03;;;;;;;;;;5058576;28;20036;-49
2021/07/24 01:46:00;;;;;;;10.63;6.60;;;;;;;;;;5055322;28;20461;-48
2021/07/24 01:48:43;;;;;;;8.60;6.85;;;;;;;;;;5054464;28;20075;-47
2021/07/24 01:53:57;;;;;;;9.75;6.78;;;;;;;;;;5060293;28;20031;-49
2021/07/24 01:56:25;;;;;;;10.27;7.07;;;;;;;;;;5073671;28;20383;-48
2021/07/24 01:58:51;;;;;;;9.63;7.05;;;;;;;;;;5065697;28;20071;-50
2021/07/24 02:01:17;;;;;;;9.95;6.75;;;;;;;;;;5081753;28;20031;-48
2021/07/24 02:03:45;;;;;;;9.93;7.65;;;;;;;;;;5064926;28;20038;-48
2021/07/24 02:06:12;;;;;;;12.63;6.80;;;;;;;;;;5076416;28;20024;-49
2021/07/24 02:08:38;;;;;;;7.70;6.45;;;;;;;;;;5068494;28;20067;-47
2021/07/24 02:11:05;;;;;;;9.73;7.20;;;;;;;;;;5073079;28;20021;-47
2021/07/24 02:13:31;;;;;;;10.82;7.25;;;;;;;;;;5066061;28;20040;-48
2021/07/24 02:15:57;;;;;;;12.32;7.80;;;;;;;;;;5094426;28;20062;-47
2021/07/24 02:18:24;;;;;;;10.50;6.70;;;;;;;;;;5072924;28;20036;-48
2021/07/24 02:20:51;;;;;;;12.02;7.55;;;;;;;;;;5066259;28;20036;-50
2021/07/24 02:23:17;;;;;;;9.45;6.45;;;;;;;;;;5078534;28;20040;-47
2021/07/24 02:25:44;;;;;;;8.70;6.20;;;;;;;;;;5059345;28;20029;-47
2021/07/24 02:28:10;;;;;;;11.50;6.93;;;;;;;;;;5081794;28;20028;-48
2021/07/24 02:30:36;;;;;;;10.18;6.85;;;;;;;;;;5077825;28;20350;-48
2021/07/24 02:33:03;;;;;;;8.52;6.90;;;;;;;;;;5071674;28;21603;-47
2021/07/24 02:35:29;;;;;;;9.93;6.90;;;;;;;;;;5053600;28;20051;-47
2021/07/24 02:37:55;;;;;;;8.95;6.70;;;;;;;;;;5074255;28;20056;-47
2021/07/24 02:40:24;;;;;;;9.85;7.18;;;;;;;;;;5093921;28;20103;-48
2021/07/24 02:42:50;;;;;;;13.57;7.65;;;;;;;;;;5083462;28;20027;-47
2021/07/24 02:45:16;;;;;;;8.90;6.68;;;;;;;;;;5060809;28;20029;-49
2021/07/24 02:47:42;;;;;;;8.75;6.75;;;;;;;;;;5063683;28;20089;-47
2021/07/24 02:50:09;;;;;;;12.23;6.93;;;;;;;;;;5083291;28;20107;-47
2021/07/24 02:52:35;;;;;;;9.63;7.03;;;;;;;;;;5081379;28;20043;-47
2021/07/24 02:55:01;;;;;;;11.57;6.63;;;;;;;;;;5067334;28;20021;-47
2021/07/24 02:57:27;;;;;;;9.55;6.93;;;;;;;;;;5071387;28;20063;-48
2021/07/24 02:59:53;;;;;;;11.85;7.95;;;;;;;;;;5063930;28;20063;-48
2021/07/24 03:02:19;;;;;;;8.07;6.50;;;;;;;;;;5064641;28;20036;-47
2021/07/24 03:04:45;;;;;;;12.93;7.60;;;;;;;;;;5069443;28;20025;-47
2021/07/24 03:07:11;;;;;;;10.95;8.10;;;;;;;;;;5078384;28;20422;-48
2021/07/24 03:09:37;;;;;;;8.93;6.80;;;;;;;;;;5080048;28;20040;-47
2021/07/24 03:12:03;;;;;;;10.43;7.53;;;;;;;;;;5071960;28;20024;-49
2021/07/24 03:14:29;;;;;;;13.30;7.28;;;;;;;;;;5076233;28;20043;-48
2021/07/24 03:16:55;;;;;;;10.98;7.40;;;;;;;;;;5093102;28;20040;-48
2021/07/24 03:19:21;;;;;;;10.30;7.30;;;;;;;;;;5075024;28;20025;-49
2021/07/24 03:21:47;;;;;;;12.13;7.45;;;;;;;;;;5089438;28;20111;-47
2021/07/24 03:24:13;;;;;;;11.57;7.78;;;;;;;;;;5059537;28;20021;-48
2021/07/24 03:26:40;;;;;;;11.93;7.85;;;;;;;;;;5103533;28;20031;-47
2021/07/24 03:29:06;;;;;;;10.13;8.10;;;;;;;;;;5068054;28;20548;-48
2021/07/24 03:31:32;;;;;;;10.88;8.30;;;;;;;;;;5064045;28;20034;-48
2021/07/24 03:33:58;;;;;;;11.55;8.23;;;;;;;;;;5078723;28;20028;-50
2021/07/24 03:36:24;;;;;;;16.30;8.65;;;;;;;;;;5075432;28;20036;-48
2021/07/24 03:38:50;;;;;;;12.68;8.43;;;;;;;;;;5057770;28;20033;-48
2021/07/24 03:41:16;;;;;;;10.38;7.82;;;;;;;;;;5076373;28;20035;-47
2021/07/24 03:43:42;;;;;;;9.93;7.57;;;;;;;;;;5088733;28;20024;-47
2021/07/24 03:46:15;;;;;;;11.40;8.27;;;;;;;;;;5058322;28;20066;-48
2021/07/24 03:48:41;;;;;;;14.55;8.02;;;;;;;;;;5066785;28;20032;-47
2021/07/24 03:51:10;;;;;;;11.02;8.23;;;;;;;;;;5078042;28;20119;-48
2021/07/24 03:53:36;;;;;;;11.68;8.23;;;;;;;;;;5067634;28;20150;-47
2021/07/24 03:56:01;;;;;;;14.88;8.60;;;;;;;;;;5091104;28;20360;-47
2021/07/24 03:58:27;;;;;;;12.40;9.13;;;;;;;;;;5074851;28;20040;-47
2021/07/24 04:00:53;;;;;;;16.15;8.50;;;;;;;;;;5084106;28;20020;-47
2021/07/24 04:03:24;;;;;;;14.90;9.80;;;;;;;;;;5059880;28;20334;-48
2021/07/24 04:05:51;;;;;;;11.15;8.40;;;;;;;;;;5070796;28;20039;-47
2021/07/24 04:08:17;;;;;;;11.75;8.40;;;;;;;;;;5073164;28;20024;-49
2021/07/24 04:10:43;;;;;;;13.35;8.93;;;;;;;;;;5077454;28;20024;-49
2021/07/24 04:13:09;;;;;;;13.00;8.88;;;;;;;;;;5082394;28;20511;-48
2021/07/24 04:15:36;;;;;;;13.95;9.60;;;;;;;;;;5091088;28;20028;-48
2021/07/24 04:18:03;;;;;;;17.45;8.30;;;;;;;;;;5071006;28;20123;-50
2021/07/24 04:20:29;;;;;;;14.57;9.52;;;;;;;;;;5059588;28;20428;-47
2021/07/24 04:22:55;;;;;;;13.70;9.27;;;;;;;;;;5062799;28;20060;-48
2021/07/24 04:25:21;;;;;;;13.63;9.27;;;;;;;;;;5070584;28;20032;-48
2021/07/24 04:27:47;;;;;;;15.73;10.35;;;;;;;;;;5077792;28;20032;-47
2021/07/24 04:30:13;;;;;;;17.73;10.20;;;;;;;;;;5069554;28;20051;-47
2021/07/24 04:32:39;;;;;;;13.75;9.80;;;;;;;;;;5076177;28;20036;-49
2021/07/24 04:35:05;;;;;;;15.45;10.02;;;;;;;;;;5082842;28;20435;-48
2021/07/24 04:37:31;;;;;;;18.05;10.45;;;;;;;;;;5063458;28;20428;-49
2021/07/24 04:39:57;;;;;;;16.50;9.80;;;;;;;;;;5064516;28;20033;-48
2021/07/24 04:42:23;;;;;;;13.85;9.88;;;;;;;;;;5054749;28;20412;-49
2021/07/24 04:44:49;;;;;;;15.77;10.48;;;;;;;;;;5080420;28;20123;-47
2021/07/24 04:47:15;;;;;;;15.82;10.18;;;;;;;;;;5070459;28;20025;-47
2021/07/24 04:49:46;;;;;;;15.82;10.48;;;;;;;;;;5068830;28;20028;-47
2021/07/24 04:52:12;;;;;;;13.90;10.23;;;;;;;;;;5078709;28;20043;-48
2021/07/24 04:54:38;;;;;;;13.52;10.35;;;;;;;;;;5065358;28;20110;-48
2021/07/24 04:57:04;;;;;;;13.25;9.65;;;;;;;;;;5079444;28;20107;-47
2021/07/24 04:59:30;;;;;;;16.27;10.90;;;;;;;;;;5064252;28;20112;-47
2021/07/24 05:01:56;;;;;;;14.75;10.65;;;;;;;;;;5061935;28;20032;-48
2021/07/24 05:04:22;;;;;;;15.30;10.40;;;;;;;;;;5064631;28;20112;-50
2021/07/24 05:06:48;;;;;;;15.52;10.32;;;;;;;;;;5072214;28;20049;-48
2021/07/24 05:09:14;;;;;;;15.13;10.30;;;;;;;;;;5058300;28;20041;-47
2021/07/24 05:11:40;;;;;;;14.18;10.70;;;;;;;;;;5067390;28;20048;-47
2021/07/24 05:14:06;;;;;;;15.30;10.95;;;;;;;;;;5072156;28;20032;-47
2021/07/24 05:16:32;;;;;;;17.30;11.50;;;;;;;;;;5095543;28;20058;-48
2021/07/24 05:19:00;;;;;;;15.60;11.05;;;;;;;;;;5075031;28;20441;-48
2021/07/24 05:21:26;;;;;;;16.48;11.98;;;;;;;;;;5089116;28;20039;-47
2021/07/24 05:23:52;;;;;;;21.55;12.05;;;;;;;;;;5085456;28;20025;-48
2021/07/24 05:26:18;;;;;;;16.75;11.98;;;;;;;;;;5079660;28;20075;-48
2021/07/24 05:28:44;;;;;;;16.88;11.63;;;;;;;;;;5071480;28;20023;-47
2021/07/24 05:31:21;;;;;;;21.42;12.35;;;;;;;;;;5080442;28;20023;-47
2021/07/24 05:33:47;;;;;;;18.40;13.50;;;;;;;;;;5078052;28;20039;-47
2021/07/24 05:36:13;;;;;;;20.20;11.68;;;;;;;;;;5071190;28;20024;-49
2021/07/24 05:38:39;;;;;;;17.83;12.40;;;;;;;;;;5066960;28;20036;-49
2021/07/24 05:41:05;;;;;;;22.13;13.68;;;;;;;;;;5090777;28;20043;-47
2021/07/24 05:43:31;;;;;;;22.02;13.82;;;;;;;;;;5077692;28;20064;-48
2021/07/24 05:45:59;;;;;;;23.95;14.77;;;;;;;;;;5067857;28;20531;-47
2021/07/24 05:48:25;;;;;;;17.92;13.90;;;;;;;;;;5087362;28;20121;-48
2021/07/24 05:50:51;;;;;;;19.25;13.60;;;;;;;;;;5078418;28;20024;-47
2021/07/24 05:53:17;;;;;;;20.33;13.55;;;;;;;;;;5063327;28;20036;-48
2021/07/24 05:55:43;;;;;;;19.95;13.98;;;;;;;;;;5091003;28;20105;-48
2021/07/24 05:58:09;;;;;;;22.42;14.80;;;;;;;;;;5078830;28;20033;-49
2021/07/24 06:00:35;;;;;;;18.30;12.52;;;;;;;;;;5062516;28;20124;-48
2021/07/24 06:03:01;;;;;;;17.95;13.00;;;;;;;;;;5061138;28;20108;-50
2021/07/24 06:05:27;;;;;;;19.38;13.07;;;;;;;;;;5071852;28;20483;-48
2021/07/24 06:07:53;;;;;;;17.67;12.55;;;;;;;;;;5056220;28;20437;-48
2021/07/24 06:10:19;;;;;;;21.20;13.23;;;;;;;;;;5078423;28;20056;-48
2021/07/24 06:12:49;;;;;;;19.15;12.55;;;;;;;;;;5084278;28;20113;-48
2021/07/24 06:15:15;;;;;;;21.77;12.88;;;;;;;;;;5069757;28;20557;-48
2021/07/24 06:17:41;;;;;;;21.88;13.35;;;;;;;;;;5080883;28;20065;-48
2021/07/24 06:20:07;;;;;;;21.80;12.70;;;;;;;;;;5062475;28;20016;-47
2021/07/24 06:22:33;;;;;;;19.90;13.38;;;;;;;;;;5069065;28;20119;-47
2021/07/24 06:24:59;;;;;;;16.38;11.45;;;;;;;;;;5067817;28;20152;-50
2021/07/24 06:27:25;;;;;;;19.63;13.32;;;;;;;;;;5093983;28;20059;-48
2021/07/24 06:29:51;;;;;;;20.90;13.27;;;;;;;;;;5065316;28;20794;-49
2021/07/24 06:32:17;;;;;;;18.80;11.88;;;;;;;;;;5085677;28;20051;-50
2021/07/24 06:34:43;;;;;;;20.58;13.40;;;;;;;;;;5087129;28;20020;-47
2021/07/24 06:37:09;;;;;;;22.38;13.40;;;;;;;;;;5076934;28;20032;-52
2021/07/24 06:39:35;;;;;;;17.65;12.32;;;;;;;;;;5066430;28;20036;-48
2021/07/24 06:42:01;;;;;;;17.73;12.30;;;;;;;;;;5078018;28;20040;-48
2021/07/24 06:44:27;;;;;;;18.25;11.30;;;;;;;;;;5084855;28;20409;-48
2021/07/24 06:46:54;;;;;;;17.15;11.60;;;;;;;;;;5085833;28;20389;-47
2021/07/24 06:49:20;;;;;;;17.58;11.43;;;;;;;;;;5085442;28;20020;-48
2021/07/24 06:51:46;;;;;;;15.95;11.20;;;;;;;;;;5074174;28;20040;-47
2021/07/24 06:54:12;;;;;;;18.08;11.07;;;;;;;;;;5067733;28;20428;-47
2021/07/24 06:56:38;;;;;;;19.23;11.88;;;;;;;;;;5075277;28;20145;-47
2021/07/24 06:59:04;;;;;;;19.23;11.05;;;;;;;;;;5088887;28;20123;-47
2021/07/24 07:01:30;;;;;;;16.50;10.40;;;;;;;;;;5066880;28;20032;-48
2021/07/24 07:03:56;;;;;;;17.63;10.98;;;;;;;;;;5069897;28;20095;-47
2021/07/24 07:06:22;;;;;;;18.40;11.30;;;;;;;;;;5072730;28;20181;-47
2021/07/24 07:08:48;;;;;;;21.65;12.63;;;;;;;;;;5063479;28;20063;-47
2021/07/24 07:11:14;;;;;;;19.67;10.85;;;;;;;;;;5067873;28;20495;-47
2021/07/24 07:13:40;;;;;;;14.30;10.75;;;;;;;;;;5068468;28;20028;-49
2021/07/24 07:16:09;;;;;;;17.60;11.00;;;;;;;;;;5073213;28;20032;-49
2021/07/24 07:18:35;;;;;;;26.40;11.35;;;;;;;;;;5081213;28;20093;-49
2021/07/24 07:21:02;;;;;;;15.63;11.35;;;;;;;;;;5056357;28;20520;-50
2021/07/24 07:23:28;;;;;;;15.77;10.57;;;;;;;;;;5083662;28;20040;-48
2021/07/24 07:25:54;;;;;;;17.30;11.60;;;;;;;;;;5069725;28;20059;-51
2021/07/24 07:28:20;;;;;;;19.00;11.60;;;;;;;;;;5088308;28;20070;-47
2021/07/24 07:30:46;;;;;;;17.13;10.30;;;;;;;;;;5089970;28;20024;-48
2021/07/24 07:33:13;;;;;;;19.70;11.68;;;;;;;;;;5089713;28;20032;-48
2021/07/24 07:35:39;;;;;;;19.85;11.07;;;;;;;;;;5079421;28;20045;-48
2021/07/24 07:38:05;;;;;;;15.00;10.88;;;;;;;;;;5062310;28;20020;-47
2021/07/24 07:40:31;;;;;;;17.38;11.65;;;;;;;;;;5062126;28;20052;-48
2021/07/24 07:42:57;;;;;;;17.88;11.43;;;;;;;;;;5062339;28;20024;-48
2021/07/24 07:45:23;;;;;;;15.82;11.23;;;;;;;;;;5054054;28;20048;-48
2021/07/24 07:47:49;;;;;;;17.38;11.00;;;;;;;;;;5088622;28;20460;-48
2021/07/24 07:50:15;;;;;;;15.18;10.90;;;;;;;;;;5092396;28;20031;-48
2021/07/24 07:52:41;;;;;;;17.65;11.00;;;;;;;;;;5092666;28;20035;-48
2021/07/24 07:55:07;;;;;;;15.95;10.52;;;;;;;;;;5069119;28;20683;-50
2021/07/24 07:57:33;;;;;;;16.08;10.82;;;;;;;;;;5075702;28;20040;-47
2021/07/24 07:59:59;;;;;;;17.25;11.13;;;;;;;;;;5071880;28;20037;-48
2021/07/24 08:02:25;;;;;;;15.98;11.13;;;;;;;;;;5066761;28;20079;-48
2021/07/24 08:04:51;;;;;;;15.20;10.13;;;;;;;;;;5070391;28;20033;-47
2021/07/24 08:07:17;;;;;;;15.07;10.70;;;;;;;;;;5069124;28;20032;-48
2021/07/24 08:09:43;;;;;;;20.65;12.65;;;;;;;;;;5073639;28;20048;-50
2021/07/24 08:12:10;;;;;;;17.20;11.40;;;;;;;;;;5054759;28;20033;-48
2021/07/24 08:14:36;;;;;;;17.02;11.57;;;;;;;;;;5057161;28;20033;-49
2021/07/24 08:17:02;;;;;;;16.17;10.95;;;;;;;;;;5064762;28;20051;-47
2021/07/24 08:19:28;;;;;;;17.63;11.05;;;;;;;;;;5064768;28;20043;-48
2021/07/24 08:21:54;;;;;;;17.85;11.13;;;;;;;;;;5080981;28;20054;-48
2021/07/24 08:24:20;;;;;;;15.80;10.93;;;;;;;;;;5068167;28;20033;-49
2021/07/24 08:26:46;;;;;;;17.58;11.40;;;;;;;;;;5089396;28;20032;-47
2021/07/24 08:29:12;;;;;;;14.38;10.18;;;;;;;;;;5066899;28;20025;-48
2021/07/24 08:31:38;;;;;;;14.25;9.38;;;;;;;;;;5066590;28;20051;-48
2021/07/24 08:34:05;;;;;;;14.98;10.43;;;;;;;;;;5059962;28;20024;-48
2021/07/24 08:36:31;;;;;;;16.75;10.40;;;;;;;;;;5072910;28;20061;-48
2021/07/24 08:38:57;;;;;;;16.13;10.65;;;;;;;;;;5070042;28;20396;-48
2021/07/24 08:41:23;;;;;;;16.88;10.25;;;;;;;;;;5076739;28;20047;-50
2021/07/24 08:43:49;;;;;;;22.77;11.20;;;;;;;;;;5066292;28;20044;-49
2021/07/24 08:46:19;;;;;;;18.42;10.85;;;;;;;;;;5091829;28;20039;-48
2021/07/24 08:48:45;;;;;;;16.00;9.45;;;;;;;;;;5070966;28;20064;-48
2021/07/24 08:51:13;;;;;;;15.65;10.13;;;;;;;;;;5074668;28;20067;-48
2021/07/24 08:53:42;;;;;;;15.10;10.82;;;;;;;;;;5078843;28;20045;-48
2021/07/24 08:56:15;;;;;;;15.18;10.30;;;;;;;;;;5093457;28;20060;-49
2021/07/24 08:58:44;;;;;;;17.35;10.60;;;;;;;;;;5077458;28;20025;-49
2021/07/24 09:01:16;;;;;;;13.35;9.85;;;;;;;;;;5063979;28;20098;-48
2021/07/24 09:03:42;;;;;;;15.32;9.63;;;;;;;;;;5062154;28;20037;-48
2021/07/24 09:06:09;;;;;;;14.25;10.20;;;;;;;;;;5085767;28;20033;-48
2021/07/24 09:08:35;;;;;;;17.98;9.50;;;;;;;;;;5086767;28;20020;-49
2021/07/24 09:11:01;;;;;;;43.75;21.38;;;;;;;;;;5057927;28;20028;-49
2021/07/24 09:13:27;;;;;;;14.55;9.73;;;;;;;;;;5063939;28;20035;-50
2021/07/24 09:15:54;;;;;;;14.43;9.82;;;;;;;;;;5065332;28;20025;-49
2021/07/24 09:18:20;;;;;;;16.90;10.18;;;;;;;;;;5068816;28;20028;-50
2021/07/24 09:20:47;;;;;;;27.77;12.38;;;;;;;;;;5079711;28;20027;-48
2021/07/24 09:23:35;;;;;;;30.70;16.35;;;;;;;;;;5072506;28;20083;-47
2021/07/24 09:26:03;;;;;;;16.27;9.57;;;;;;;;;;5087698;28;20467;-47
2021/07/24 09:28:29;;;;;;;14.32;9.35;;;;;;;;;;5094852;28;20107;-49
2021/07/24 09:30:55;;;;;;;12.38;8.80;;;;;;;;;;5092920;28;20032;-49
2021/07/24 09:33:21;;;;;;;13.02;9.38;;;;;;;;;;5095177;28;20017;-48
2021/07/24 09:35:54;;;;;;;18.45;10.82;;;;;;;;;;5089676;28;20028;-52
2021/07/24 09:38:33;;;;;;;19.98;11.90;;;;;;;;;;5069202;28;20016;-48
2021/07/24 09:41:01;;;;;;;14.70;9.50;;;;;;;;;;5076115;28;20624;-49
2021/07/24 09:43:27;;;;;;;22.85;10.48;;;;;;;;;;5084053;28;20012;-47
2021/07/24 09:46:12;;;;;;;17.58;10.18;;;;;;;;;;5093079;28;20715;-48
2021/07/24 09:48:39;;;;;;;14.57;10.23;;;;;;;;;;5089229;28;20513;-49
2021/07/24 09:51:05;;;;;;;14.68;9.75;;;;;;;;;;5094635;28;20516;-48
2021/07/24 09:53:37;;;;;;;15.95;9.27;;;;;;;;;;5072387;28;20029;-49
2021/07/24 09:56:03;;;;;;;13.50;9.30;;;;;;;;;;5093913;28;20055;-48
2021/07/24 09:58:29;;;;;;;14.70;9.23;;;;;;;;;;5084112;28;20033;-48
2021/07/24 10:01:03;;;;;;;16.85;10.50;;;;;;;;;;5076009;28;20043;-48
2021/07/24 10:03:30;;;;;;;15.27;9.63;;;;;;;;;;5058001;28;20041;-48
2021/07/24 10:05:56;;;;;;;15.07;9.18;;;;;;;;;;5088903;28;20024;-52
2021/07/24 10:08:23;;;;;;;22.98;11.95;;;;;;;;;;5079817;28;20467;-48
2021/07/24 10:10:51;;;;;;;15.40;9.48;;;;;;;;;;5081046;28;20489;-48
2021/07/24 10:13:17;;;;;;;12.60;8.75;;;;;;;;;;5085816;28;20024;-52
2021/07/24 10:15:44;;;;;;;12.93;9.30;;;;;;;;;;5094426;28;20372;-48
2021/07/24 10:18:11;;;;;;;13.95;9.00;;;;;;;;;;5090387;28;20460;-49
2021/07/24 10:20:41;;;;;;;11.57;8.77;;;;;;;;;;5088856;28;20032;-48
2021/07/24 10:23:08;;;;;;;16.40;8.90;;;;;;;;;;5086631;28;20384;-48
2021/07/24 10:25:40;;;;;;;14.50;9.18;;;;;;;;;;5065416;28;20486;-48
2021/07/24 10:28:07;;;;;;;12.32;8.88;;;;;;;;;;5085275;28;20039;-47
2021/07/24 10:30:34;;;;;;;13.05;9.77;;;;;;;;;;5086943;28;20038;-48
2021/07/24 10:33:00;;;;;;;12.93;8.93;;;;;;;;;;5077992;28;20537;-47
2021/07/24 10:35:39;;;;;;;12.88;9.35;;;;;;;;;;5092981;28;20714;-47
2021/07/24 10:38:24;;;;;;;16.85;9.52;;;;;;;;;;5093244;28;20157;-48
2021/07/24 10:40:50;;;;;;;13.23;9.50;;;;;;;;;;5077394;28;20028;-48
2021/07/24 10:43:36;;;;;;;13.50;8.82;;;;;;;;;;5081113;28;20081;-48
2021/07/24 10:46:02;;;;;;;15.10;9.23;;;;;;;;;;5081975;28;20416;-48
2021/07/24 10:48:43;;;;;;;15.23;9.35;;;;;;;;;;5093253;28;20142;-48
2021/07/24 10:51:14;;;;;;;13.88;8.55;;;;;;;;;;5091843;28;20028;-48
2021/07/24 10:53:58;;;;;;;10.80;7.55;;;;;;;;;;5078276;28;20036;-49
2021/07/24 10:56:35;;;;;;;11.77;8.15;;;;;;;;;;5067029;28;20020;-50
2021/07/24 10:59:27;;;;;;;15.27;8.10;;;;;;;;;;5065467;28;20021;-50
2021/07/24 11:01:57;;;;;;;11.45;7.82;;;;;;;;;;5075973;28;20036;-49
2021/07/24 11:04:39;;;;;;;10.80;7.80;;;;;;;;;;5058420;28;20464;-50
2021/07/24 11:07:14;;;;;;;12.93;8.40;;;;;;;;;;5059869;28;20021;-48
2021/07/24 11:09:41;;;;;;;9.90;7.53;;;;;;;;;;5073311;28;20461;-48
2021/07/24 11:12:13;;;;;;;11.65;8.25;;;;;;;;;;5075657;28;20023;-51
2021/07/24 11:14:42;;;;;;;9.57;7.70;;;;;;;;;;5076796;28;20028;-48
2021/07/24 11:17:08;;;;;;;11.05;7.88;;;;;;;;;;5081159;28;20271;-48
2021/07/24 11:19:35;;;;;;;11.77;7.93;;;;;;;;;;5077457;28;20456;-48
2021/07/24 11:22:11;;;;;;;12.18;7.75;;;;;;;;;;5084791;28;20028;-48
2021/07/24 11:24:37;;;;;;;11.98;7.93;;;;;;;;;;5068749;28;20047;-49
2021/07/24 11:27:03;;;;;;;15.48;8.82;;;;;;;;;;5072038;28;20065;-48
2021/07/24 11:29:30;;;;;;;10.43;7.57;;;;;;;;;;5086676;28;20028;-50
2021/07/24 11:31:57;;;;;;;11.38;7.95;;;;;;;;;;5089699;28;20032;-48
2021/07/24 11:34:26;;;;;;;9.80;7.35;;;;;;;;;;5083633;28;20099;-50
2021/07/24 11:36:52;;;;;;;10.90;7.68;;;;;;;;;;5072655;28;20097;-49
2021/07/24 11:39:28;;;;;;;11.82;7.43;;;;;;;;;;5087286;28;20035;-50
2021/07/24 11:41:55;;;;;;;12.77;7.57;;;;;;;;;;5092560;28;20107;-47
2021/07/24 11:44:39;;;;;;;12.15;8.18;;;;;;;;;;5082931;28;20024;-49
2021/07/24 11:47:05;;;;;;;13.30;7.93;;;;;;;;;;5065324;28;20041;-48
2021/07/24 11:49:32;;;;;;;11.88;8.25;;;;;;;;;;5063513;28;20029;-48
2021/07/24 11:51:58;;;;;;;10.50;7.93;;;;;;;;;;5058125;28;20040;-48
2021/07/24 11:54:28;;;;;;;12.43;7.85;;;;;;;;;;5056739;28;20565;-48
2021/07/24 11:56:54;;;;;;;9.40;7.30;;;;;;;;;;5069772;28;20040;-49
2021/07/24 11:59:20;;;;;;;16.85;7.80;;;;;;;;;;5055668;28;20036;-48
2021/07/24 12:01:46;;;;;;;11.30;7.43;;;;;;;;;;5056372;28;20426;-48
2021/07/24 12:04:13;;;;;;;9.65;7.55;;;;;;;;;;5066414;28;20023;-49
2021/07/24 12:06:48;;;;;;;11.77;7.75;;;;;;;;;;5085565;28;20452;-48
2021/07/24 12:09:16;;;;;;;10.23;7.40;;;;;;;;;;5059486;28;20037;-50
2021/07/24 12:11:47;;;;;;;18.25;7.75;;;;;;;;;;5058939;28;20443;-48
2021/07/24 12:14:13;;;;;;;9.65;6.97;;;;;;;;;;5078374;28;20028;-49
2021/07/24 12:16:40;;;;;;;11.65;7.47;;;;;;;;;;5086601;28;20039;-49
2021/07/24 12:19:13;;;;;;;12.95;7.75;;;;;;;;;;5086415;28;20356;-49
2021/07/24 12:21:39;;;;;;;12.35;7.43;;;;;;;;;;5085884;28;20037;-48
2021/07/24 12:24:06;;;;;;;10.32;7.38;;;;;;;;;;5085257;28;20033;-51
2021/07/24 12:26:33;;;;;;;11.85;7.00;;;;;;;;;;5061707;28;20450;-50
2021/07/24 12:29:00;;;;;;;9.80;6.93;;;;;;;;;;5059649;28;20033;-50
2021/07/24 12:31:33;;;;;;;10.23;7.03;;;;;;;;;;5065668;28;20052;-51
2021/07/24 12:34:03;;;;;;;10.25;6.97;;;;;;;;;;5074050;28;20025;-54
2021/07/24 12:36:30;;;;;;;10.05;7.07;;;;;;;;;;5072674;28;20123;-48
2021/07/24 12:38:57;;;;;;;11.73;7.47;;;;;;;;;;5089299;28;20032;-49
2021/07/24 12:41:35;;;;;;;10.75;6.65;;;;;;;;;;5061475;28;20048;-49
2021/07/24 12:44:05;;;;;;;11.27;7.07;;;;;;;;;;5063703;28;20067;-48
2021/07/24 12:46:31;;;;;;;10.50;7.28;;;;;;;;;;5068918;28;20017;-51
2021/07/24 12:48:57;;;;;;;11.25;6.75;;;;;;;;;;5066078;28;20028;-49
2021/07/24 12:51:35;;;;;;;11.60;7.07;;;;;;;;;;5060814;28;20036;-50
2021/07/24 12:54:12;;;;;;;12.30;7.28;;;;;;;;;;5056974;28;20043;-50
2021/07/24 12:56:39;;;;;;;10.48;6.78;;;;;;;;;;5054791;28;20016;-51
2021/07/24 12:59:05;;;;;;;10.05;6.95;;;;;;;;;;5055925;28;20025;-49
2021/07/24 13:01:31;;;;;;;9.95;6.75;;;;;;;;;;5052935;28;20047;-49
2021/07/24 13:03:58;;;;;;;10.30;6.68;;;;;;;;;;5050943;28;20025;-54
2021/07/24 13:06:28;;;;;;;10.25;6.47;;;;;;;;;;5054638;28;20029;-52
2021/07/24 13:09:00;;;;;;;10.85;7.07;;;;;;;;;;5054826;28;20025;-53
2021/07/24 13:11:27;;;;;;;10.48;7.35;;;;;;;;;;5053591;28;20052;-51
2021/07/24 13:13:53;;;;;;;12.63;6.70;;;;;;;;;;5061314;28;20020;-52
2021/07/24 13:16:19;;;;;;;8.65;6.65;;;;;;;;;;5067124;28;20518;-49
2021/07/24 13:18:45;;;;;;;10.02;6.82;;;;;;;;;;5060532;28;20112;-49
2021/07/24 13:21:11;;;;;;;11.95;6.50;;;;;;;;;;5059827;28;20040;-52
2021/07/24 13:23:37;;;;;;;7.72;5.95;;;;;;;;;;5061811;28;20052;-51
2021/07/24 13:28:48;;;;;;;10.00;5.30;;;;;;;;;;5057634;28;20051;-51
2021/07/24 13:31:14;;;;;;;10.20;5.80;;;;;;;;;;5064794;28;20464;-50
2021/07/24 13:33:40;;;;;;;7.00;5.38;;;;;;;;;;5081031;28;20427;-52
2021/07/24 13:36:06;;;;;;;7.25;5.22;;;;;;;;;;5079509;28;20107;-52
2021/07/24 13:38:33;;;;;;;10.02;5.10;;;;;;;;;;5083668;28;20037;-49
2021/07/24 13:40:59;;;;;;;8.18;5.05;;;;;;;;;;5079327;28;20029;-51
2021/07/24 13:43:25;;;;;;;7.78;4.90;;;;;;;;;;5079959;28;20028;-51
2021/07/24 13:45:51;;;;;;;6.72;4.57;;;;;;;;;;5080856;28;20036;-54
2021/07/24 13:48:17;;;;;;;7.13;4.53;;;;;;;;;;5075122;28;20035;-50
2021/07/24 13:50:43;;;;;;;9.13;4.63;;;;;;;;;;5078642;28;20036;-52
2021/07/24 13:53:09;;;;;;;7.35;4.97;;;;;;;;;;5081005;28;20162;-50
2021/07/24 13:55:39;;;;;;;5.90;4.43;;;;;;;;;;5078729;28;20436;-51
2021/07/24 13:58:04;;;;;;;7.28;4.32;;;;;;;;;;5079325;28;20031;-50
2021/07/24 14:00:30;;;;;;;7.35;4.60;;;;;;;;;;5082267;28;20036;-49
2021/07/24 14:02:56;;;;;;;8.15;4.72;;;;;;;;;;5077011;28;20078;-53
2021/07/24 14:05:22;;;;;;;6.10;4.45;;;;;;;;;;5079217;28;20024;-55
2021/07/24 14:07:48;;;;;;;9.38;5.15;;;;;;;;;;5078585;28;20097;-51
2021/07/24 14:10:14;;;;;;;6.28;4.25;;;;;;;;;;5082315;28;20040;-49
2021/07/24 14:12:41;;;;;;;6.95;5.18;;;;;;;;;;5079838;28;20046;-50
2021/07/24 14:15:07;;;;;;;7.00;4.60;;;;;;;;;;5080904;28;20028;-52
2021/07/24 14:17:33;;;;;;;6.10;4.45;;;;;;;;;;5080322;28;20093;-49
2021/07/24 14:19:59;;;;;;;7.53;4.72;;;;;;;;;;5081644;28;20024;-51
2021/07/24 14:22:25;;;;;;;6.15;4.43;;;;;;;;;;5081460;28;20047;-50
2021/07/24 14:24:51;;;;;;;7.25;4.82;;;;;;;;;;5072320;28;20024;-49
2021/07/24 14:27:17;;;;;;;6.82;5.10;;;;;;;;;;5078742;28;20379;-50
2021/07/24 14:29:43;;;;;;;6.90;4.80;;;;;;;;;;5071030;28;20035;-49
2021/07/24 14:32:09;;;;;;;6.00;4.70;;;;;;;;;;5079145;28;20024;-50
2021/07/24 14:34:35;;;;;;;7.40;4.63;;;;;;;;;;5078519;28;20024;-49